Time;durP1;ratioP1;P1;durP2;ratioP2;P2;SDS_P1;SDS_P2;PMS_P1;PMS_P2;Temp;Humidity;BMP_temperature;BMP_pressure;BME280_temperature;BME280_humidity;BME280_pressure;Samples;Min_cycle;Max_cycle;Signal;HPM_P1;HPM_P2
2021/12/08 00:02:01;;;;;;;9.65;1.20;;;6.30;99.90;;;;;;5066754;28;20048;-75
2021/12/08 00:04:28;;;;;;;21.35;1.98;;;6.40;99.90;;;;;;5066774;28;20029;-75
2021/12/08 00:06:53;;;;;;;12.65;2.17;;;6.40;99.90;;;;;;5065073;28;20332;-74
2021/12/08 00:09:28;;;;;;;9.50;1.90;;;6.50;99.90;;;;;;5066502;28;20020;-75
2021/12/08 00:14:40;;;;;;;12.02;1.77;;;6.50;99.90;;;;;;5065455;28;20047;-75
2021/12/08 00:17:06;;;;;;;11.20;1.83;;;6.50;99.90;;;;;;5048394;28;20244;-75
2021/12/08 00:19:32;;;;;;;13.95;2.47;;;6.60;99.90;;;;;;5065093;28;20056;-74
2021/12/08 00:21:58;;;;;;;14.00;1.75;;;6.70;99.90;;;;;;5066086;28;20067;-74
2021/12/08 00:24:25;;;;;;;12.15;1.95;;;6.70;99.90;;;;;;5048528;28;20312;-74
2021/12/08 00:26:52;;;;;;;17.17;1.85;;;6.70;99.90;;;;;;5065914;28;20031;-74
2021/12/08 00:29:18;;;;;;;15.05;2.40;;;6.70;99.90;;;;;;5064868;28;20377;-74
2021/12/08 00:31:46;;;;;;;16.45;1.85;;;6.70;99.90;;;;;;5048369;28;20029;-74
2021/12/08 00:34:12;;;;;;;15.45;2.00;;;6.80;99.90;;;;;;5064878;28;20013;-74
2021/12/08 00:36:44;;;;;;;14.38;1.90;;;6.80;99.90;;;;;;5065789;28;20319;-74
2021/12/08 00:39:11;;;;;;;15.50;2.60;;;6.70;99.90;;;;;;5048816;28;20226;-75
2021/12/08 00:41:37;;;;;;;16.30;2.58;;;6.60;99.90;;;;;;5048247;28;20028;-75
2021/12/08 00:44:04;;;;;;;17.85;2.50;;;6.60;99.90;;;;;;5064564;28;20028;-75
2021/12/08 00:46:30;;;;;;;15.27;2.20;;;6.50;99.90;;;;;;5064347;28;20025;-75
2021/12/08 00:48:56;;;;;;;17.02;2.45;;;6.60;99.90;;;;;;5064424;28;20105;-75
2021/12/08 00:51:21;;;;;;;18.80;2.40;;;6.60;99.90;;;;;;5064346;28;20074;-75
2021/12/08 00:53:47;;;;;;;13.98;1.75;;;6.60;99.90;;;;;;5064561;28;20286;-75
2021/12/08 00:56:14;;;;;;;23.45;2.40;;;6.60;99.90;;;;;;5065658;28;20021;-75
2021/12/08 00:58:40;;;;;;;18.42;2.00;;;6.50;99.90;;;;;;5063797;28;20304;-75
2021/12/08 01:01:07;;;;;;;14.70;2.20;;;6.50;99.90;;;;;;5063775;28;20021;-75
2021/12/08 01:03:35;;;;;;;24.55;2.42;;;6.50;99.90;;;;;;5065478;28;20032;-75
2021/12/08 01:06:02;;;;;;;21.20;2.55;;;6.40;99.90;;;;;;5064474;28;20032;-75
2021/12/08 01:08:28;;;;;;;22.38;2.15;;;6.50;99.90;;;;;;5065247;28;20029;-75
2021/12/08 01:10:57;;;;;;;19.30;2.42;;;6.50;99.90;;;;;;5064983;28;20024;-75
2021/12/08 01:13:24;;;;;;;17.67;2.20;;;6.60;99.90;;;;;;5064144;28;20017;-75
2021/12/08 01:15:53;;;;;;;21.58;2.90;;;6.60;99.90;;;;;;5064277;28;20367;-76
2021/12/08 01:18:20;;;;;;;20.58;2.30;;;6.70;99.90;;;;;;5065102;28;20021;-75
2021/12/08 01:20:47;;;;;;;16.60;2.25;;;6.80;99.90;;;;;;5064746;28;20019;-75
2021/12/08 01:23:14;;;;;;;18.15;2.17;;;6.80;99.90;;;;;;5063487;28;20016;-75
2021/12/08 01:25:40;;;;;;;17.02;1.90;;;6.90;99.90;;;;;;5065075;28;20029;-75
2021/12/08 01:28:06;;;;;;;18.73;2.90;;;6.90;99.90;;;;;;5064903;28;20040;-75
2021/12/08 01:30:32;;;;;;;16.58;2.88;;;6.80;99.90;;;;;;5064828;28;20044;-75
2021/12/08 01:32:58;;;;;;;17.67;2.20;;;6.80;99.90;;;;;;5063723;28;20048;-74
2021/12/08 01:35:25;;;;;;;22.45;2.88;;;6.80;99.90;;;;;;5065082;28;20377;-75
2021/12/08 01:37:51;;;;;;;28.23;3.40;;;7.00;99.90;;;;;;5064743;28;20223;-74
2021/12/08 01:40:17;;;;;;;19.20;2.28;;;7.00;99.90;;;;;;5063586;28;20021;-75
2021/12/08 01:42:47;;;;;;;24.33;2.70;;;7.10;99.90;;;;;;5046796;28;20021;-75
2021/12/08 01:48:04;;;;;;;21.23;2.75;;;7.10;99.90;;;;;;5063598;28;20098;-75
2021/12/08 01:50:30;;;;;;;18.75;2.97;;;7.10;99.90;;;;;;5063450;28;20075;-75
2021/12/08 01:52:56;;;;;;;23.10;3.65;;;7.10;99.90;;;;;;5062951;28;20044;-75
2021/12/08 01:55:21;;;;;;;23.20;3.80;;;7.20;99.90;;;;;;5046848;28;20040;-75
2021/12/08 01:57:48;;;;;;;27.80;3.83;;;7.20;99.90;;;;;;5064277;28;20028;-75
2021/12/08 02:00:37;;;;;;;18.15;2.95;;;7.20;99.90;;;;;;5063316;28;20215;-75
2021/12/08 02:03:03;;;;;;;18.80;3.20;;;7.20;99.90;;;;;;5047770;28;20024;-75
2021/12/08 02:05:29;;;;;;;21.95;3.00;;;7.30;99.90;;;;;;5063373;28;20032;-75
2021/12/08 02:07:55;;;;;;;32.15;3.38;;;7.30;99.90;;;;;;5064195;28;20200;-75
2021/12/08 02:10:25;;;;;;;23.17;3.33;;;7.30;99.90;;;;;;5064234;28;20096;-76
2021/12/08 02:12:52;;;;;;;21.60;4.47;;;7.40;99.90;;;;;;5062851;28;20036;-75
2021/12/08 02:15:19;;;;;;;11.93;2.63;;;7.50;99.90;;;;;;5063050;28;20028;-75
2021/12/08 02:17:47;;;;;;;16.15;1.83;;;7.60;98.90;;;;;;5064115;28;20288;-72
2021/12/08 02:20:14;;;;;;;9.35;1.45;;;7.40;98.90;;;;;;5063890;28;20044;-73
2021/12/08 02:22:40;;;;;;;15.90;2.20;;;7.00;98.50;;;;;;5062705;28;20024;-73
2021/12/08 02:25:08;;;;;;;6.80;1.08;;;6.90;98.90;;;;;;5062899;28;20032;-73
2021/12/08 02:27:34;;;;;;;11.70;2.13;;;6.90;98.50;;;;;;5064030;28;20020;-74
2021/12/08 02:30:12;;;;;;;12.82;2.50;;;7.00;99.40;;;;;;5063575;28;20025;-74
2021/12/08 02:46:45;;;;;;;21.17;2.67;;;6.90;99.90;;;;;;5062817;28;20212;-74
2021/12/08 02:49:11;;;;;;;20.75;2.53;;;6.90;99.90;;;;;;5063505;28;20027;-74
2021/12/08 02:51:39;;;;;;;16.85;2.63;;;7.10;99.60;;;;;;5063190;28;20041;-74
2021/12/08 02:54:05;;;;;;;19.60;2.20;;;7.10;99.70;;;;;;5063726;28;20346;-74
2021/12/08 02:56:31;;;;;;;33.10;4.05;;;7.30;99.60;;;;;;5063568;28;20204;-74
2021/12/08 02:58:58;;;;;;;28.45;3.72;;;7.30;99.50;;;;;;5063202;28;20060;-74
2021/12/08 03:01:24;;;;;;;22.92;3.00;;;7.30;99.50;;;;;;5063738;28;20067;-74
2021/12/08 03:03:51;;;;;;;18.50;2.80;;;7.30;99.50;;;;;;5061152;28;20086;-74
2021/12/08 03:06:17;;;;;;;19.27;2.15;;;7.30;99.20;;;;;;5062481;28;20029;-74
2021/12/08 03:08:44;;;;;;;17.98;2.20;;;7.40;98.50;;;;;;5062259;28;20013;-74
2021/12/08 03:11:10;;;;;;;12.60;2.63;;;7.50;98.50;;;;;;5045533;28;20053;-74
2021/12/08 03:13:41;;;;;;;18.85;2.20;;;7.40;98.70;;;;;;5063037;28;20076;-74
2021/12/08 03:16:08;;;;;;;20.15;3.13;;;7.20;98.70;;;;;;5066859;28;20024;-74
2021/12/08 03:18:36;;;;;;;13.60;1.63;;;7.20;98.90;;;;;;5066137;28;20211;-74
2021/12/08 03:21:04;;;;;;;12.43;1.67;;;7.10;99.10;;;;;;5065896;28;20017;-74
2021/12/08 03:23:38;;;;;;;19.38;2.88;;;7.00;99.20;;;;;;5066504;28;20021;-74
2021/12/08 03:26:06;;;;;;;19.08;2.72;;;7.00;99.40;;;;;;5067347;28;20242;-74
2021/12/08 03:28:37;;;;;;;20.17;2.97;;;7.00;99.60;;;;;;5066243;28;20021;-74
2021/12/08 03:31:09;;;;;;;14.07;1.95;;;6.90;99.60;;;;;;5065989;28;20071;-75
2021/12/08 03:33:35;;;;;;;15.85;1.90;;;6.90;99.30;;;;;;5066178;28;20027;-74
2021/12/08 03:36:01;;;;;;;14.05;2.08;;;7.10;98.30;;;;;;5066930;28;20045;-74
2021/12/08 03:38:27;;;;;;;22.13;2.60;;;7.10;97.90;;;;;;5066190;28;20084;-74
2021/12/08 03:40:56;;;;;;;21.42;2.47;;;7.20;97.30;;;;;;5065568;28;20028;-74
2021/12/08 03:43:21;;;;;;;10.88;1.85;;;7.20;97.20;;;;;;5067051;28;20295;-74
2021/12/08 03:45:50;;;;;;;21.48;2.40;;;7.20;97.10;;;;;;5066958;28;20063;-74
2021/12/08 03:48:28;;;;;;;20.35;3.15;;;7.30;96.70;;;;;;5065972;28;20044;-75
2021/12/08 03:50:56;;;;;;;18.98;2.58;;;7.30;96.50;;;;;;5065152;28;20239;-75
2021/12/08 03:53:22;;;;;;;26.25;2.72;;;7.40;96.70;;;;;;5065835;28;20020;-75
2021/12/08 03:55:50;;;;;;;16.65;1.95;;;7.40;97.30;;;;;;5065290;28;20032;-74
2021/12/08 03:58:16;;;;;;;17.08;2.53;;;7.30;98.00;;;;;;5065812;28;20017;-74
2021/12/08 04:00:44;;;;;;;18.00;3.35;;;7.30;98.60;;;;;;5065336;28;20020;-74
2021/12/08 04:03:12;;;;;;;27.55;3.63;;;7.20;99.20;;;;;;5064867;28;20024;-74
2021/12/08 04:05:45;;;;;;;24.73;2.97;;;7.20;99.30;;;;;;5066716;28;20025;-74
2021/12/08 04:08:18;;;;;;;16.92;2.35;;;7.10;99.30;;;;;;5065599;28;20107;-75
2021/12/08 04:10:47;;;;;;;18.70;2.80;;;7.20;97.80;;;;;;5064811;28;20036;-75
2021/12/08 04:13:13;;;;;;;17.25;1.63;;;7.30;97.30;;;;;;5049006;28;20042;-75
2021/12/08 04:15:39;;;;;;;6.75;1.38;;;7.40;96.30;;;;;;5066497;28;20024;-75
2021/12/08 04:18:05;;;;;;;14.45;2.38;;;7.50;96.10;;;;;;5066501;28;20051;-75
2021/12/08 04:20:39;;;;;;;18.33;2.17;;;7.50;95.90;;;;;;5065782;28;20021;-75
2021/12/08 04:23:07;;;;;;;19.00;2.30;;;7.50;96.30;;;;;;5064772;28;20063;-75
2021/12/08 04:25:36;;;;;;;18.23;2.95;;;7.40;96.60;;;;;;5065025;28;20025;-75
2021/12/08 04:28:06;;;;;;;20.40;2.03;;;7.30;97.00;;;;;;5065040;28;20259;-75
2021/12/08 04:30:37;;;;;;;25.38;1.77;;;7.30;97.30;;;;;;5065037;28;20100;-75
2021/12/08 04:33:03;;;;;;;18.75;2.50;;;7.30;96.90;;;;;;5064942;28;20086;-75
2021/12/08 04:35:30;;;;;;;18.10;2.63;;;7.40;97.20;;;;;;5048087;28;20049;-75
2021/12/08 04:38:01;;;;;;;18.25;2.60;;;7.50;96.80;;;;;;5065027;28;20025;-75
2021/12/08 04:40:38;;;;;;;13.65;2.55;;;7.50;96.50;;;;;;5065603;28;20013;-75
2021/12/08 04:43:15;;;;;;;20.33;2.17;;;7.50;96.50;;;;;;5065248;28;20024;-75
2021/12/08 04:45:59;;;;;;;24.02;3.33;;;7.40;96.60;;;;;;5049432;28;20092;-75
2021/12/08 04:48:52;;;;;;;14.10;2.08;;;7.30;96.80;;;;;;5065559;28;20430;-75
2021/12/08 04:51:38;;;;;;;11.00;1.50;;;7.30;97.10;;;;;;5064238;28;20051;-75
2021/12/08 05:00:18;;;;;;;23.40;2.80;;;7.30;96.80;;;;;;5051015;28;20032;-75
2021/12/08 05:02:45;;;;;;;20.63;2.50;;;7.20;95.30;;;;;;5064615;28;20365;-75
2021/12/08 05:05:23;;;;;;;23.55;3.30;;;7.30;95.30;;;;;;5063812;28;20020;-75
2021/12/08 05:08:11;;;;;;;16.33;3.03;;;7.30;95.50;;;;;;5064514;28;20021;-75
2021/12/08 05:10:36;;;;;;;21.90;2.60;;;7.30;95.80;;;;;;5064213;28;20029;-75
2021/12/08 05:13:05;;;;;;;19.85;2.72;;;7.30;96.20;;;;;;5065043;28;20048;-75
2021/12/08 05:15:37;;;;;;;24.52;2.45;;;7.30;96.70;;;;;;5047735;28;20033;-75
2021/12/08 05:18:18;;;;;;;16.40;2.33;;;7.20;96.60;;;;;;5047604;28;20024;-75
2021/12/08 05:20:52;;;;;;;24.92;2.63;;;7.30;95.50;;;;;;5047185;28;20315;-75
2021/12/08 05:23:30;;;;;;;24.20;3.00;;;7.40;95.60;;;;;;5063807;28;20039;-75
2021/12/08 05:25:58;;;;;;;18.83;2.78;;;7.40;95.80;;;;;;5047508;28;20110;-75
2021/12/08 05:28:26;;;;;;;20.83;2.95;;;7.40;96.10;;;;;;5065120;28;20028;-75
2021/12/08 05:31:09;;;;;;;15.40;2.00;;;7.40;96.50;;;;;;5047014;28;20123;-75
2021/12/08 05:33:35;;;;;;;17.25;2.08;;;7.40;95.90;;;;;;5064881;28;20027;-75
2021/12/08 05:36:02;;;;;;;25.48;2.80;;;7.50;95.30;;;;;;5046529;28;20111;-75
2021/12/08 05:38:29;;;;;;;11.65;1.60;;;7.50;95.20;;;;;;5063622;28;20096;-75
2021/12/08 05:40:59;;;;;;;16.33;2.40;;;7.60;94.50;;;;;;5046857;28;20021;-75
2021/12/08 05:43:27;;;;;;;20.50;2.53;;;7.60;94.00;;;;;;5063533;28;20345;-75
2021/12/08 05:45:54;;;;;;;19.10;2.83;;;7.60;94.60;;;;;;5063643;28;20044;-76
2021/12/08 05:48:20;;;;;;;20.75;2.42;;;7.60;94.60;;;;;;5063780;28;20385;-75
2021/12/08 05:50:53;;;;;;;14.02;2.25;;;7.70;94.30;;;;;;5063354;28;20212;-75
2021/12/08 05:53:20;;;;;;;15.38;2.03;;;7.80;94.30;;;;;;5065068;28;20037;-75
2021/12/08 05:55:47;;;;;;;15.43;2.45;;;7.80;93.90;;;;;;5066893;28;20028;-75
2021/12/08 05:58:21;;;;;;;27.17;3.22;;;7.80;94.00;;;;;;5067099;28;20024;-75
2021/12/08 06:01:03;;;;;;;20.20;2.97;;;7.70;94.30;;;;;;5066778;28;20021;-75
2021/12/08 06:03:29;;;;;;;16.10;2.72;;;7.80;94.20;;;;;;5047139;28;20326;-75
2021/12/08 06:05:55;;;;;;;16.55;2.65;;;7.80;94.50;;;;;;5062991;28;20052;-75
2021/12/08 06:08:22;;;;;;;21.70;3.08;;;7.80;94.80;;;;;;5063336;28;20021;-75
2021/12/08 06:10:49;;;;;;;8.25;2.40;;;7.70;95.00;;;;;;5046310;28;20070;-75
2021/12/08 06:13:16;;;;;;;24.60;2.15;;;7.70;94.80;;;;;;5062948;28;20025;-75
2021/12/08 06:15:45;;;;;;;15.82;2.78;;;7.70;94.60;;;;;;5064251;28;20032;-75
2021/12/08 06:18:12;;;;;;;14.43;1.75;;;7.70;94.30;;;;;;5064208;28;20094;-75
2021/12/08 06:20:38;;;;;;;21.20;3.35;;;7.80;94.20;;;;;;5063936;28;20066;-75
2021/12/08 06:23:07;;;;;;;18.05;2.30;;;7.80;94.50;;;;;;5045808;28;20088;-75
2021/12/08 06:25:34;;;;;;;15.93;2.22;;;7.80;94.50;;;;;;5062827;28;20254;-76
2021/12/08 06:28:00;;;;;;;22.27;2.85;;;7.80;94.20;;;;;;5062939;28;20042;-75
2021/12/08 06:30:30;;;;;;;16.40;2.65;;;7.80;94.50;;;;;;5062856;28;20013;-75
2021/12/08 06:32:56;;;;;;;19.95;2.33;;;7.80;94.60;;;;;;5062427;28;20043;-74
2021/12/08 06:35:30;;;;;;;12.43;2.17;;;7.80;94.70;;;;;;5045909;28;20335;-75
2021/12/08 06:37:56;;;;;;;17.25;2.50;;;7.80;94.40;;;;;;5063553;28;20036;-75
2021/12/08 06:40:44;;;;;;;17.13;2.05;;;7.80;94.70;;;;;;5062350;28;20332;-75
2021/12/08 06:43:14;;;;;;;16.20;2.22;;;7.90;94.70;;;;;;5062661;28;20029;-76
2021/12/08 06:45:45;;;;;;;21.45;3.38;;;7.90;95.00;;;;;;5045935;28;20036;-75
2021/12/08 06:48:17;;;;;;;24.40;2.63;;;7.80;95.20;;;;;;5061862;28;20033;-75
2021/12/08 06:50:51;;;;;;;19.73;2.70;;;7.90;95.00;;;;;;5063516;28;20048;-75
2021/12/08 06:53:17;;;;;;;19.83;2.42;;;7.90;94.80;;;;;;5062021;28;20037;-75
2021/12/08 06:55:49;;;;;;;13.88;2.03;;;7.90;94.80;;;;;;5063503;28;20082;-75
2021/12/08 06:58:19;;;;;;;;;;;8.00;94.90;;;;;;5062997;28;20303;-75
2021/12/08 07:01:16;;;;;;;12.40;1.90;;;8.00;94.60;;;;;;5063479;28;19915;-74
2021/12/08 07:04:04;;;;;;;24.88;3.92;;;8.10;94.80;;;;;;5049202;28;20088;-74
2021/12/08 07:06:48;;;;;;;9.55;1.75;;;8.10;95.00;;;;;;5061747;28;20032;-75
2021/12/08 07:09:24;;;;;;;20.30;2.47;;;8.10;94.90;;;;;;5062299;28;20017;-75
2021/12/08 07:11:52;;;;;;;15.18;2.22;;;8.10;95.00;;;;;;5063397;28;20017;-74
2021/12/08 07:14:20;;;;;;;16.83;1.95;;;8.10;94.80;;;;;;5062333;28;20032;-75
2021/12/08 07:16:49;;;;;;;17.13;1.95;;;7.90;95.30;;;;;;5062399;28;20031;-74
2021/12/08 07:19:28;;;;;;;31.05;3.35;;;7.80;94.90;;;;;;5045433;28;20017;-74
2021/12/08 07:21:56;;;;;;;15.52;2.28;;;7.90;95.30;;;;;;5061889;28;20028;-74
2021/12/08 07:24:27;;;;;;;18.40;2.25;;;7.90;95.00;;;;;;5063176;28;20021;-74
2021/12/08 07:26:58;;;;;;;15.55;1.65;;;8.00;94.60;;;;;;5063136;28;20024;-74
2021/12/08 07:29:30;;;;;;;20.97;2.17;;;8.00;93.90;;;;;;5061980;28;20025;-75
2021/12/08 07:32:18;;;;;;;16.02;2.75;;;8.00;93.70;;;;;;5063316;28;20320;-74
2021/12/08 07:34:44;;;;;;;9.00;1.27;;;8.10;93.20;;;;;;5061799;28;20151;-75
2021/12/08 07:37:16;;;;;;;13.48;2.05;;;8.10;93.30;;;;;;5063202;28;20040;-75
2021/12/08 07:39:47;;;;;;;12.70;2.40;;;8.10;93.00;;;;;;5045195;28;20304;-75
2021/12/08 07:42:19;;;;;;;14.73;1.35;;;8.10;92.60;;;;;;5062421;28;20039;-73
2021/12/08 07:44:49;;;;;;;13.85;1.95;;;8.10;92.10;;;;;;5045087;28;20021;-73
2021/12/08 07:47:16;;;;;;;10.50;1.80;;;8.10;92.10;;;;;;5062043;28;20100;-77
2021/12/08 07:49:48;;;;;;;15.45;2.40;;;8.00;92.20;;;;;;5061884;28;20059;-77
2021/12/08 07:52:21;;;;;;;12.18;2.50;;;8.00;91.90;;;;;;5061807;28;20029;-76
2021/12/08 07:54:48;;;;;;;9.35;1.55;;;8.00;92.00;;;;;;5045487;28;20091;-76
2021/12/08 07:57:19;;;;;;;14.80;2.17;;;8.10;92.00;;;;;;5059855;28;20020;-76
2021/12/08 07:59:50;;;;;;;10.98;1.90;;;8.10;92.40;;;;;;5063082;28;20013;-74
2021/12/08 08:02:17;;;;;;;14.88;1.77;;;8.10;92.70;;;;;;5066838;28;20025;-70
2021/12/08 08:04:45;;;;;;;10.77;1.48;;;8.10;92.70;;;;;;5064923;28;20251;-72
2021/12/08 08:07:13;;;;;;;10.63;1.75;;;8.10;92.70;;;;;;5063887;28;20036;-78
2021/12/08 08:09:42;;;;;;;17.88;2.35;;;8.10;92.40;;;;;;5065275;28;20012;-80
2021/12/08 08:12:13;;;;;;;12.18;1.83;;;8.00;92.90;;;;;;5062443;28;20029;-79
2021/12/08 08:14:43;;;;;;;24.13;2.53;;;8.00;92.30;;;;;;5037415;28;20033;-78
2021/12/08 08:17:17;;;;;;;14.50;2.03;;;8.10;92.70;;;;;;5062747;28;20052;-78
2021/12/08 08:19:45;;;;;;;11.43;1.75;;;8.00;92.50;;;;;;5056955;28;20280;-77
2021/12/08 08:22:18;;;;;;;14.23;2.08;;;8.00;92.50;;;;;;5064648;28;20067;-79
2021/12/08 08:24:45;;;;;;;13.68;2.13;;;8.10;92.00;;;;;;5040571;28;20083;-77
2021/12/08 08:27:14;;;;;;;13.52;2.35;;;8.10;91.90;;;;;;5047323;28;20315;-80
2021/12/08 08:29:40;;;;;;;11.10;1.95;;;8.10;91.30;;;;;;5047147;28;20024;-78
2021/12/08 08:32:11;;;;;;;26.70;2.33;;;8.10;91.70;;;;;;5063401;28;20040;-78
2021/12/08 08:34:40;;;;;;;13.57;1.90;;;8.10;91.30;;;;;;5059728;28;20035;-77
2021/12/08 08:37:10;;;;;;;12.07;1.73;;;8.10;91.00;;;;;;5061829;28;20150;-72
2021/12/08 08:39:42;;;;;;;14.35;2.15;;;8.20;91.10;;;;;;5042883;28;20351;-76
2021/12/08 08:42:16;;;;;;;11.40;2.38;;;8.20;91.00;;;;;;5060436;28;20021;-74
2021/12/08 08:44:49;;;;;;;12.15;1.88;;;8.20;90.80;;;;;;5064931;28;20017;-72
2021/12/08 08:47:26;;;;;;;7.95;1.35;;;8.20;91.00;;;;;;5064306;28;20150;-75
2021/12/08 08:49:53;;;;;;;9.82;1.67;;;8.20;90.80;;;;;;5046700;28;20063;-73
2021/12/08 08:52:28;;;;;;;4.55;1.00;;;8.30;90.60;;;;;;5057257;28;20033;-73
2021/12/08 08:54:59;;;;;;;9.82;1.30;;;8.30;90.40;;;;;;5077431;28;20024;-73
2021/12/08 08:57:33;;;;;;;11.02;1.60;;;8.30;90.50;;;;;;5045250;28;20025;-73
2021/12/08 09:00:25;;;;;;;11.88;1.52;;;8.30;90.40;;;;;;5054228;28;20400;-71
2021/12/08 09:02:54;;;;;;;12.23;1.88;;;8.30;90.40;;;;;;5066931;28;20033;-77
2021/12/08 09:05:26;;;;;;;12.80;1.95;;;8.30;90.30;;;;;;5073862;28;20055;-77
2021/12/08 09:07:54;;;;;;;10.60;1.58;;;8.30;90.80;;;;;;5065647;28;20320;-78
2021/12/08 09:10:32;;;;;;;3.80;1.05;;;8.30;90.80;;;;;;5066586;28;20092;-73
2021/12/08 09:13:04;;;;;;;16.75;2.28;;;8.30;90.50;;;;;;5062495;28;20051;-75
2021/12/08 09:15:35;;;;;;;20.92;2.53;;;8.30;91.20;;;;;;5063177;28;20080;-75
2021/12/08 09:18:08;;;;;;;17.73;1.75;;;8.30;91.00;;;;;;5061838;28;20043;-77
2021/12/08 09:20:42;;;;;;;17.42;2.78;;;8.30;91.10;;;;;;5041866;28;20033;-79
2021/12/08 09:23:21;;;;;;;13.95;1.75;;;8.30;91.30;;;;;;5026986;28;20033;-75
2021/12/08 09:25:53;;;;;;;12.63;2.08;;;8.30;91.00;;;;;;5043145;28;20088;-76
2021/12/08 09:28:26;;;;;;;12.32;1.65;;;8.30;91.40;;;;;;5059440;28;20044;-79
2021/12/08 09:31:02;;;;;;;12.88;2.05;;;8.30;91.30;;;;;;5058839;28;20129;-74
2021/12/08 09:33:37;;;;;;;16.55;2.03;;;8.30;92.00;;;;;;5062064;28;20021;-76
2021/12/08 09:36:08;;;;;;;22.52;3.42;;;8.40;91.70;;;;;;5062687;28;20121;-76
2021/12/08 09:38:39;;;;;;;13.43;2.73;;;8.40;92.30;;;;;;5062205;28;20043;-81
2021/12/08 09:41:29;;;;;;;14.35;2.28;;;8.40;92.10;;;;;;5050898;28;20267;-77
2021/12/08 09:44:01;;;;;;;8.80;2.05;;;8.40;92.40;;;;;;5048512;28;20032;-76
2021/12/08 09:46:33;;;;;;;17.35;2.90;;;8.40;91.50;;;;;;5063119;28;20019;-74
2021/12/08 09:48:59;;;;;;;11.70;1.80;;;8.40;91.10;;;;;;5045783;28;20075;-74
2021/12/08 09:51:27;;;;;;;11.88;1.90;;;8.40;91.30;;;;;;5061685;28;20033;-71
2021/12/08 09:53:53;;;;;;;17.17;2.45;;;8.40;91.40;;;;;;5062402;28;20346;-73
2021/12/08 09:56:21;;;;;;;12.55;2.20;;;8.40;91.40;;;;;;5048932;28;20017;-76
2021/12/08 09:58:46;;;;;;;10.80;1.88;;;8.40;91.70;;;;;;5026079;28;20027;-79
2021/12/08 10:01:18;;;;;;;10.77;1.92;;;8.40;91.90;;;;;;5045484;28;20208;-77
2021/12/08 10:03:43;;;;;;;13.32;2.05;;;8.40;91.90;;;;;;5046429;28;20052;-74
2021/12/08 10:06:12;;;;;;;16.42;2.20;;;8.40;91.80;;;;;;5045642;28;20216;-78
2021/12/08 10:08:37;;;;;;;16.42;1.70;;;8.40;91.50;;;;;;5061613;28;20021;-78
2021/12/08 10:11:03;;;;;;;13.32;1.90;;;8.40;91.60;;;;;;5062333;28;20021;-75
2021/12/08 10:13:29;;;;;;;13.32;2.47;;;8.40;91.50;;;;;;5045844;28;20032;-75
2021/12/08 10:15:55;;;;;;;14.35;1.67;;;8.40;91.30;;;;;;5063267;28;20029;-75
2021/12/08 10:18:21;;;;;;;9.57;1.23;;;8.40;91.40;;;;;;5061529;28;20066;-75
2021/12/08 10:20:51;;;;;;;12.98;1.80;;;8.40;91.20;;;;;;5044539;28;20251;-78
2021/12/08 10:23:23;;;;;;;11.88;1.67;;;8.40;91.10;;;;;;5043010;28;20092;-73
2021/12/08 10:26:10;;;;;;;7.88;1.40;;;8.40;91.00;;;;;;5035951;28;20029;-74
2021/12/08 10:28:56;;;;;;;9.95;1.45;;;8.40;91.00;;;;;;5052358;28;20086;-75
2021/12/08 10:31:29;;;;;;;12.35;1.75;;;8.40;90.20;;;;;;5045172;28;20343;-75
2021/12/08 10:34:05;;;;;;;12.75;2.63;;;8.40;90.20;;;;;;5056408;28;20076;-75
2021/12/08 10:36:45;;;;;;;12.13;2.28;;;8.40;90.80;;;;;;5042942;28;20087;-77
2021/12/08 10:39:33;;;;;;;7.05;1.50;;;8.40;90.60;;;;;;5026093;28;20114;-79
2021/12/08 10:42:22;;;;;;;20.00;1.98;;;8.50;90.50;;;;;;5061044;28;20252;-74
2021/12/08 10:45:11;;;;;;;9.50;2.05;;;8.50;90.10;;;;;;5064973;28;20020;-74
2021/12/08 10:47:44;;;;;;;23.05;2.17;;;8.50;90.20;;;;;;5061854;28;20038;-80
2021/12/08 10:56:06;;;;;;;10.43;1.98;;;8.50;90.10;;;;;;5056973;28;20068;-76
2021/12/08 10:58:35;;;;;;;13.60;2.17;;;8.50;90.20;;;;;;5065787;28;20017;-74
2021/12/08 11:01:22;;;;;;;6.97;1.55;;;8.50;90.20;;;;;;5052832;28;20243;-76
2021/12/08 11:03:50;;;;;;;14.15;2.10;;;8.50;89.80;;;;;;5040993;28;20025;-79
2021/12/08 11:06:19;;;;;;;8.45;1.67;;;8.50;90.20;;;;;;5044545;28;20072;-75
2021/12/08 11:08:48;;;;;;;10.02;2.53;;;8.60;90.00;;;;;;5054643;28;20360;-77
2021/12/08 11:11:20;;;;;;;13.32;1.70;;;8.60;90.40;;;;;;5038856;28;20064;-76
2021/12/08 11:13:51;;;;;;;9.60;1.80;;;8.50;90.20;;;;;;5060767;28;20025;-78
2021/12/08 11:16:33;;;;;;;9.02;1.60;;;8.50;89.40;;;;;;5044944;28;20204;-80
2021/12/08 11:19:01;;;;;;;;;;;8.50;89.60;;;;;;5028811;28;20096;-81
2021/12/08 11:21:35;;;;;;;8.40;1.70;;;8.50;90.00;;;;;;5024275;28;19909;-81
2021/12/08 11:24:03;;;;;;;13.73;2.40;;;8.50;90.10;;;;;;5037005;28;20013;-81
2021/12/08 11:26:36;;;;;;;11.38;1.73;;;8.50;90.10;;;;;;5061312;28;20033;-79
2021/12/08 11:29:22;;;;;;;6.20;1.60;;;8.50;90.10;;;;;;5061748;28;20017;-80
2021/12/08 11:32:08;;;;;;;10.10;1.48;;;8.50;89.30;;;;;;5044467;28;20060;-80
2021/12/08 11:34:39;;;;;;;13.77;1.58;;;8.50;90.50;;;;;;5044316;28;20021;-77
2021/12/08 11:37:08;;;;;;;9.02;1.48;;;8.50;90.40;;;;;;5065265;28;20017;-79
2021/12/08 11:39:38;;;;;;;19.02;2.53;;;8.50;90.00;;;;;;5044182;28;20033;-79
2021/12/08 11:42:16;;;;;;;13.20;1.70;;;8.50;90.30;;;;;;5046655;28;20027;-76
2021/12/08 11:44:44;;;;;;;13.40;2.47;;;8.50;90.10;;;;;;5062468;28;20538;-77
2021/12/08 11:47:13;;;;;;;7.32;1.27;;;8.50;90.30;;;;;;5047912;28;20032;-77
2021/12/08 11:49:43;;;;;;;6.70;1.13;;;8.50;89.80;;;;;;5063956;28;20021;-73
2021/12/08 11:52:13;;;;;;;9.30;1.48;;;8.50;90.00;;;;;;5060515;28;20033;-76
2021/12/08 11:54:48;;;;;;;12.70;1.58;;;8.40;90.30;;;;;;5060078;28;20020;-73
2021/12/08 11:57:21;;;;;;;13.05;2.03;;;8.40;90.20;;;;;;5064458;28;20037;-74
2021/12/08 12:00:16;;;;;;;10.45;1.85;;;8.40;90.50;;;;;;5058837;28;20021;-71
2021/12/08 12:02:46;;;;;;;17.08;2.42;;;8.40;90.60;;;;;;5066506;28;20036;-74
2021/12/08 12:05:16;;;;;;;18.77;2.00;;;8.40;90.70;;;;;;5062604;28;20044;-78
2021/12/08 12:07:42;;;;;;;13.75;2.20;;;8.40;90.60;;;;;;5080239;28;20040;-79
2021/12/08 12:10:10;;;;;;;10.75;1.63;;;8.40;91.00;;;;;;5078869;28;20021;-79
2021/12/08 12:12:39;;;;;;;13.98;2.00;;;8.40;90.60;;;;;;5077953;28;20758;-79
2021/12/08 12:15:07;;;;;;;15.75;2.85;;;8.40;90.80;;;;;;5047928;28;20028;-77
2021/12/08 12:17:33;;;;;;;12.50;2.13;;;8.40;90.60;;;;;;5064470;28;20349;-77
2021/12/08 12:20:12;;;;;;;12.80;2.00;;;8.40;90.60;;;;;;5063190;28;20029;-76
2021/12/08 12:23:00;;;;;;;12.18;1.58;;;8.40;90.40;;;;;;5063311;28;20189;-77
2021/12/08 12:25:56;;;;;;;11.95;2.15;;;8.30;90.20;;;;;;5064218;28;20028;-79
2021/12/08 12:29:01;;;;;;;15.73;2.42;;;8.30;90.10;;;;;;5063787;28;20024;-77
2021/12/08 12:31:52;;;;;;;14.32;1.92;;;8.30;90.20;;;;;;5043025;28;20366;-78
2021/12/08 12:34:31;;;;;;;19.33;2.63;;;8.30;90.40;;;;;;5030371;28;20040;-77
2021/12/08 12:36:57;;;;;;;18.77;1.92;;;8.30;90.50;;;;;;5043733;28;20109;-78
2021/12/08 12:39:26;;;;;;;16.52;2.28;;;8.30;90.20;;;;;;5057550;28;20032;-76
2021/12/08 12:42:13;;;;;;;21.50;2.63;;;8.30;89.80;;;;;;5063560;28;20040;-72
2021/12/08 12:44:42;;;;;;;15.23;2.45;;;8.30;90.10;;;;;;5063426;28;20327;-75
2021/12/08 12:47:15;;;;;;;19.13;2.20;;;8.40;89.50;;;;;;5062742;28;20191;-73
2021/12/08 12:49:45;;;;;;;9.88;1.92;;;8.40;89.20;;;;;;5062388;28;20021;-75
2021/12/08 12:52:13;;;;;;;15.90;2.33;;;8.50;88.60;;;;;;5052291;28;20029;-77
2021/12/08 12:54:43;;;;;;;16.40;2.15;;;8.60;88.30;;;;;;5019413;28;20395;-71
2021/12/08 12:57:10;;;;;;;17.45;2.05;;;8.60;88.20;;;;;;5062623;28;20020;-74
2021/12/08 12:59:45;;;;;;;17.10;2.47;;;8.60;87.60;;;;;;5070283;28;20325;-72
2021/12/08 13:02:20;;;;;;;15.57;2.05;;;8.70;87.80;;;;;;5063517;28;20024;-74
2021/12/08 13:05:02;;;;;;;12.20;1.98;;;8.70;88.60;;;;;;5043553;28;20029;-77
2021/12/08 13:07:29;;;;;;;15.13;2.83;;;8.60;87.90;;;;;;5051741;28;20239;-78
2021/12/08 13:09:57;;;;;;;16.40;2.67;;;8.50;87.30;;;;;;5061568;28;20072;-75
2021/12/08 13:12:43;;;;;;;15.18;2.00;;;8.50;87.90;;;;;;5061632;28;20025;-72
2021/12/08 13:15:25;;;;;;;13.88;2.63;;;8.50;88.20;;;;;;5078123;28;20028;-77
2021/12/08 13:18:12;;;;;;;17.73;2.50;;;8.40;88.40;;;;;;5044169;28;20028;-76
2021/12/08 13:20:42;;;;;;;20.55;2.60;;;8.40;88.70;;;;;;5064233;28;20221;-75
2021/12/08 13:23:10;;;;;;;32.63;3.08;;;8.50;88.70;;;;;;5045613;28;20039;-75
2021/12/08 13:26:04;;;;;;;19.02;2.03;;;8.50;88.80;;;;;;5025610;28;20103;-75
2021/12/08 13:29:01;;;;;;;26.20;4.22;;;8.50;88.60;;;;;;5053128;28;20307;-73
2021/12/08 13:31:38;;;;;;;14.75;2.28;;;8.50;87.70;;;;;;5069220;28;20028;-81
2021/12/08 13:34:08;;;;;;;22.77;2.35;;;8.50;88.10;;;;;;5082611;28;20027;-76
2021/12/08 13:36:49;;;;;;;25.77;3.47;;;8.50;88.50;;;;;;5053520;28;20061;-77
2021/12/08 13:39:23;;;;;;;15.70;1.80;;;8.50;89.00;;;;;;5043290;28;20025;-78
2021/12/08 13:42:13;;;;;;;24.45;2.40;;;8.50;89.00;;;;;;5030397;28;20024;-82